sensor_id;sensor_type;location;lat;lon;timestamp;pressure;altitude;pressure_sealevel;temperature;humidity
64388;BME280;50709;52.648;4.764;2023-05-09T00:00:00;101806.38;;;16.67;67.01
64388;BME280;50709;52.648;4.764;2023-05-09T00:02:25;101799.06;;;17.00;67.39
64388;BME280;50709;52.648;4.764;2023-05-09T00:04:52;101799.09;;;16.98;67.31
64388;BME280;50709;52.648;4.764;2023-05-09T00:07:17;101786.38;;;17.36;66.73
64388;BME280;50709;52.648;4.764;2023-05-09T00:09:43;101791.22;;;16.88;66.82
64388;BME280;50709;52.648;4.764;2023-05-09T00:12:08;101783.25;;;16.98;66.36
64388;BME280;50709;52.648;4.764;2023-05-09T00:14:34;101784.84;;;17.18;67.17
64388;BME280;50709;52.648;4.764;2023-05-09T00:16:59;101784.72;;;17.26;66.69
64388;BME280;50709;52.648;4.764;2023-05-09T00:19:25;101776.66;;;17.41;66.33
64388;BME280;50709;52.648;4.764;2023-05-09T00:21:50;101774.63;;;17.63;65.68
64388;BME280;50709;52.648;4.764;2023-05-09T00:24:16;101777.28;;;17.62;65.78
64388;BME280;50709;52.648;4.764;2023-05-09T00:26:41;101762.78;;;17.22;66.45
64388;BME280;50709;52.648;4.764;2023-05-09T00:29:07;101771.13;;;17.63;66.22
64388;BME280;50709;52.648;4.764;2023-05-09T00:31:32;101776.78;;;17.27;66.99
64388;BME280;50709;52.648;4.764;2023-05-09T00:33:57;101765.44;;;17.22;67.49
64388;BME280;50709;52.648;4.764;2023-05-09T00:36:23;101772.22;;;17.43;66.38
64388;BME280;50709;52.648;4.764;2023-05-09T00:38:48;101769.66;;;17.37;67.17
64388;BME280;50709;52.648;4.764;2023-05-09T00:41:13;101768.78;;;17.35;67.31
64388;BME280;50709;52.648;4.764;2023-05-09T00:43:39;101742.34;;;17.38;66.91
64388;BME280;50709;52.648;4.764;2023-05-09T00:46:04;101750.50;;;17.17;67.67
64388;BME280;50709;52.648;4.764;2023-05-09T00:48:30;101751.53;;;17.03;68.05
64388;BME280;50709;52.648;4.764;2023-05-09T00:50:55;101759.44;;;17.05;68.51
64388;BME280;50709;52.648;4.764;2023-05-09T00:53:21;101750.75;;;16.93;68.73
64388;BME280;50709;52.648;4.764;2023-05-09T00:55:46;101757.28;;;17.39;67.91
64388;BME280;50709;52.648;4.764;2023-05-09T00:58:12;101741.88;;;17.04;68.32
64388;BME280;50709;52.648;4.764;2023-05-09T01:00:38;101743.41;;;17.22;68.43
64388;BME280;50709;52.648;4.764;2023-05-09T01:03:03;101744.53;;;16.99;68.83
64388;BME280;50709;52.648;4.764;2023-05-09T01:05:40;101730.84;;;17.42;68.10
64388;BME280;50709;52.648;4.764;2023-05-09T01:08:31;101738.81;;;17.39;68.29
64388;BME280;50709;52.648;4.764;2023-05-09T01:11:25;101730.00;;;17.40;68.35
64388;BME280;50709;52.648;4.764;2023-05-09T01:16:54;101714.22;;;17.34;68.46
64388;BME280;50709;52.648;4.764;2023-05-09T01:19:45;101729.50;;;17.77;67.47
64388;BME280;50709;52.648;4.764;2023-05-09T01:22:17;101718.03;;;17.08;68.88
64388;BME280;50709;52.648;4.764;2023-05-09T01:27:57;101716.09;;;17.26;69.62
64388;BME280;50709;52.648;4.764;2023-05-09T01:30:23;101686.59;;;16.90;69.79
64388;BME280;50709;52.648;4.764;2023-05-09T01:32:52;101703.47;;;17.51;68.38
64388;BME280;50709;52.648;4.764;2023-05-09T01:35:24;101701.06;;;17.31;69.52
64388;BME280;50709;52.648;4.764;2023-05-09T01:37:50;101690.19;;;17.56;68.41
64388;BME280;50709;52.648;4.764;2023-05-09T01:40:18;101675.75;;;17.16;69.89
64388;BME280;50709;52.648;4.764;2023-05-09T01:42:58;101690.66;;;17.19;69.68
64388;BME280;50709;52.648;4.764;2023-05-09T01:45:26;101686.22;;;17.24;69.66
64388;BME280;50709;52.648;4.764;2023-05-09T01:47:53;101686.72;;;17.54;68.86
64388;BME280;50709;52.648;4.764;2023-05-09T01:50:19;101686.63;;;17.61;68.66
64388;BME280;50709;52.648;4.764;2023-05-09T01:52:47;101683.75;;;17.08;70.15
64388;BME280;50709;52.648;4.764;2023-05-09T01:55:14;101679.28;;;17.13;69.73
64388;BME280;50709;52.648;4.764;2023-05-09T01:57:42;101680.84;;;17.30;70.31
64388;BME280;50709;52.648;4.764;2023-05-09T02:00:08;101661.34;;;17.42;69.86
64388;BME280;50709;52.648;4.764;2023-05-09T02:02:35;101669.13;;;17.51;70.01
64388;BME280;50709;52.648;4.764;2023-05-09T02:05:02;101670.00;;;17.53;69.92
64388;BME280;50709;52.648;4.764;2023-05-09T02:07:28;101668.41;;;17.41;70.24
64388;BME280;50709;52.648;4.764;2023-05-09T02:09:54;101633.44;;;17.22;70.19
64388;BME280;50709;52.648;4.764;2023-05-09T02:12:22;101660.41;;;17.46;70.52
64388;BME280;50709;52.648;4.764;2023-05-09T02:14:48;101660.63;;;17.30;70.90
64388;BME280;50709;52.648;4.764;2023-05-09T02:17:13;101664.28;;;17.17;70.96
64388;BME280;50709;52.648;4.764;2023-05-09T02:19:42;101663.91;;;17.45;70.88
64388;BME280;50709;52.648;4.764;2023-05-09T02:22:08;101652.28;;;17.60;70.31
64388;BME280;50709;52.648;4.764;2023-05-09T02:24:33;101656.06;;;17.42;70.61
64388;BME280;50709;52.648;4.764;2023-05-09T02:27:01;101647.84;;;17.62;70.42
64388;BME280;50709;52.648;4.764;2023-05-09T02:29:31;101626.28;;;17.30;70.93
64388;BME280;50709;52.648;4.764;2023-05-09T02:32:15;101652.28;;;17.61;70.60
64388;BME280;50709;52.648;4.764;2023-05-09T02:34:41;101639.72;;;17.76;69.80
64388;BME280;50709;52.648;4.764;2023-05-09T02:37:09;101645.09;;;17.70;70.26
64388;BME280;50709;52.648;4.764;2023-05-09T02:39:35;101644.78;;;17.93;69.46
64388;BME280;50709;52.648;4.764;2023-05-09T02:42:05;101640.47;;;17.86;69.83
64388;BME280;50709;52.648;4.764;2023-05-09T02:44:31;101630.09;;;17.72;70.32
64388;BME280;50709;52.648;4.764;2023-05-09T02:46:57;101640.59;;;17.78;69.92
64388;BME280;50709;52.648;4.764;2023-05-09T02:49:22;101613.50;;;17.63;69.92
64388;BME280;50709;52.648;4.764;2023-05-09T02:51:47;101623.53;;;17.40;70.42
64388;BME280;50709;52.648;4.764;2023-05-09T02:54:13;101620.38;;;17.74;70.22
64388;BME280;50709;52.648;4.764;2023-05-09T02:56:38;101619.63;;;17.65;69.90
64388;BME280;50709;52.648;4.764;2023-05-09T02:59:03;101625.09;;;17.53;70.33
64388;BME280;50709;52.648;4.764;2023-05-09T03:01:29;101607.91;;;17.83;69.82
64388;BME280;50709;52.648;4.764;2023-05-09T03:03:55;101619.34;;;17.84;69.78
64388;BME280;50709;52.648;4.764;2023-05-09T03:06:21;101603.47;;;17.86;69.70
64388;BME280;50709;52.648;4.764;2023-05-09T03:08:46;101613.28;;;17.76;70.43
64388;BME280;50709;52.648;4.764;2023-05-09T03:11:11;101611.69;;;17.67;70.72
64388;BME280;50709;52.648;4.764;2023-05-09T03:13:37;101596.69;;;17.68;71.05
64388;BME280;50709;52.648;4.764;2023-05-09T03:16:02;101590.41;;;17.76;70.29
64388;BME280;50709;52.648;4.764;2023-05-09T03:18:28;101600.38;;;17.59;71.13
64388;BME280;50709;52.648;4.764;2023-05-09T03:20:53;101585.13;;;17.76;70.37
64388;BME280;50709;52.648;4.764;2023-05-09T03:23:20;101585.78;;;17.33;71.48
64388;BME280;50709;52.648;4.764;2023-05-09T03:25:45;101585.03;;;17.22;72.06
64388;BME280;50709;52.648;4.764;2023-05-09T03:28:10;101582.09;;;17.43;72.01
64388;BME280;50709;52.648;4.764;2023-05-09T03:30:37;101572.38;;;17.47;71.18
64388;BME280;50709;52.648;4.764;2023-05-09T03:33:02;101577.09;;;17.23;71.76
64388;BME280;50709;52.648;4.764;2023-05-09T03:35:29;101575.84;;;17.51;70.91
64388;BME280;50709;52.648;4.764;2023-05-09T03:37:54;101586.09;;;17.08;72.63
64388;BME280;50709;52.648;4.764;2023-05-09T03:40:20;101573.22;;;16.80;73.01
64388;BME280;50709;52.648;4.764;2023-05-09T03:42:45;101574.84;;;16.92;73.49
64388;BME280;50709;52.648;4.764;2023-05-09T03:45:10;101573.97;;;16.93;73.43
64388;BME280;50709;52.648;4.764;2023-05-09T03:47:36;101567.03;;;16.81;74.29
64388;BME280;50709;52.648;4.764;2023-05-09T03:50:01;101548.47;;;16.94;73.53
64388;BME280;50709;52.648;4.764;2023-05-09T03:52:28;101565.09;;;17.02;73.35
64388;BME280;50709;52.648;4.764;2023-05-09T03:54:53;101562.69;;;16.77;74.41
64388;BME280;50709;52.648;4.764;2023-05-09T03:57:19;101567.13;;;16.75;74.68
64388;BME280;50709;52.648;4.764;2023-05-09T03:59:44;101553.00;;;16.81;74.06
64388;BME280;50709;52.648;4.764;2023-05-09T04:02:10;101539.94;;;16.70;74.63
64388;BME280;50709;52.648;4.764;2023-05-09T04:04:35;101537.25;;;16.76;74.56
64388;BME280;50709;52.648;4.764;2023-05-09T04:07:01;101538.09;;;16.77;74.01
64388;BME280;50709;52.648;4.764;2023-05-09T04:09:26;101530.06;;;16.89;74.57
64388;BME280;50709;52.648;4.764;2023-05-09T04:11:53;101541.50;;;16.85;74.52
64388;BME280;50709;52.648;4.764;2023-05-09T04:14:18;101543.84;;;17.11;73.77
64388;BME280;50709;52.648;4.764;2023-05-09T04:16:43;101543.84;;;17.11;73.79
64388;BME280;50709;52.648;4.764;2023-05-09T04:19:09;101546.22;;;16.61;75.49
64388;BME280;50709;52.648;4.764;2023-05-09T04:21:34;101527.63;;;16.69;74.87
64388;BME280;50709;52.648;4.764;2023-05-09T04:23:59;101531.69;;;17.00;74.54
64388;BME280;50709;52.648;4.764;2023-05-09T04:26:25;101524.75;;;16.91;74.56
64388;BME280;50709;52.648;4.764;2023-05-09T04:28:51;101534.84;;;16.56;76.09
64388;BME280;50709;52.648;4.764;2023-05-09T04:31:17;101523.25;;;16.70;75.27
64388;BME280;50709;52.648;4.764;2023-05-09T04:33:43;101527.38;;;16.91;75.18
64388;BME280;50709;52.648;4.764;2023-05-09T04:36:09;101516.78;;;16.95;74.64
64388;BME280;50709;52.648;4.764;2023-05-09T04:38:34;101508.22;;;16.75;74.75
64388;BME280;50709;52.648;4.764;2023-05-09T04:41:00;101508.16;;;16.81;75.15
64388;BME280;50709;52.648;4.764;2023-05-09T04:43:25;101508.84;;;16.97;74.72
64388;BME280;50709;52.648;4.764;2023-05-09T04:45:52;101502.69;;;16.98;74.25
64388;BME280;50709;52.648;4.764;2023-05-09T04:48:17;101490.19;;;17.09;74.07
64388;BME280;50709;52.648;4.764;2023-05-09T04:50:43;101498.19;;;17.05;74.46
64388;BME280;50709;52.648;4.764;2023-05-09T04:53:08;101500.84;;;17.02;74.63
64388;BME280;50709;52.648;4.764;2023-05-09T04:55:35;101498.59;;;17.36;73.46
64388;BME280;50709;52.648;4.764;2023-05-09T04:58:00;101493.03;;;16.97;74.36
64388;BME280;50709;52.648;4.764;2023-05-09T05:00:26;101494.88;;;16.86;74.87
64388;BME280;50709;52.648;4.764;2023-05-09T05:02:51;101490.16;;;17.12;74.28
64388;BME280;50709;52.648;4.764;2023-05-09T05:05:17;101499.28;;;16.90;74.63
64388;BME280;50709;52.648;4.764;2023-05-09T05:07:42;101490.19;;;17.09;74.91
64388;BME280;50709;52.648;4.764;2023-05-09T05:10:08;101475.19;;;17.13;74.39
64388;BME280;50709;52.648;4.764;2023-05-09T05:12:33;101482.53;;;16.91;74.27
64388;BME280;50709;52.648;4.764;2023-05-09T05:14:59;101480.94;;;16.76;75.28
64388;BME280;50709;52.648;4.764;2023-05-09T05:17:24;101473.13;;;16.71;75.74
64388;BME280;50709;52.648;4.764;2023-05-09T05:19:50;101477.75;;;16.52;76.09
64388;BME280;50709;52.648;4.764;2023-05-09T05:22:15;101468.00;;;16.57;76.83
64388;BME280;50709;52.648;4.764;2023-05-09T05:24:41;101473.41;;;16.50;76.71
64388;BME280;50709;52.648;4.764;2023-05-09T05:27:06;101475.59;;;16.84;76.36
64388;BME280;50709;52.648;4.764;2023-05-09T05:29:31;101474.97;;;16.64;76.07
64388;BME280;50709;52.648;4.764;2023-05-09T05:31:57;101474.06;;;16.64;76.05
64388;BME280;50709;52.648;4.764;2023-05-09T05:34:22;101465.91;;;16.82;76.00
64388;BME280;50709;52.648;4.764;2023-05-09T05:36:48;101469.78;;;16.57;76.16
64388;BME280;50709;52.648;4.764;2023-05-09T05:39:13;101465.31;;;16.62;76.41
64388;BME280;50709;52.648;4.764;2023-05-09T05:41:38;101461.00;;;16.56;77.07
64388;BME280;50709;52.648;4.764;2023-05-09T05:44:04;101471.06;;;16.22;77.81
64388;BME280;50709;52.648;4.764;2023-05-09T05:46:29;101468.41;;;16.23;77.74
64388;BME280;50709;52.648;4.764;2023-05-09T05:48:55;101456.84;;;16.37;77.60
64388;BME280;50709;52.648;4.764;2023-05-09T05:51:21;101458.94;;;16.08;77.75
64388;BME280;50709;52.648;4.764;2023-05-09T05:53:46;101461.34;;;16.27;77.24
64388;BME280;50709;52.648;4.764;2023-05-09T05:56:11;101449.06;;;16.26;77.84
64388;BME280;50709;52.648;4.764;2023-05-09T05:58:37;101452.56;;;16.28;77.55
64388;BME280;50709;52.648;4.764;2023-05-09T06:01:02;101453.28;;;16.41;77.64
64388;BME280;50709;52.648;4.764;2023-05-09T06:03:28;101447.34;;;16.23;77.90
64388;BME280;50709;52.648;4.764;2023-05-09T06:05:53;101440.56;;;16.01;78.09
64388;BME280;50709;52.648;4.764;2023-05-09T06:08:19;101442.97;;;16.22;78.60
64388;BME280;50709;52.648;4.764;2023-05-09T06:10:45;101430.72;;;16.17;78.76
64388;BME280;50709;52.648;4.764;2023-05-09T06:13:11;101440.97;;;16.43;77.65
64388;BME280;50709;52.648;4.764;2023-05-09T06:15:36;101437.91;;;16.04;78.33
64388;BME280;50709;52.648;4.764;2023-05-09T06:18:01;101432.97;;;16.51;77.81
64388;BME280;50709;52.648;4.764;2023-05-09T06:20:27;101428.53;;;16.53;77.53
64388;BME280;50709;52.648;4.764;2023-05-09T06:22:52;101411.22;;;16.33;77.99
64388;BME280;50709;52.648;4.764;2023-05-09T06:25:18;101424.56;;;16.18;78.30
64388;BME280;50709;52.648;4.764;2023-05-09T06:27:43;101419.41;;;16.08;79.22
64388;BME280;50709;52.648;4.764;2023-05-09T06:30:09;101422.72;;;16.24;78.90
64388;BME280;50709;52.648;4.764;2023-05-09T06:32:34;101414.31;;;15.94;79.24
64388;BME280;50709;52.648;4.764;2023-05-09T06:35:00;101408.09;;;15.98;80.51
64388;BME280;50709;52.648;4.764;2023-05-09T06:37:26;101412.28;;;16.15;79.45
64388;BME280;50709;52.648;4.764;2023-05-09T06:39:51;101393.50;;;16.43;78.26
64388;BME280;50709;52.648;4.764;2023-05-09T06:42:16;101405.28;;;16.12;79.86
64388;BME280;50709;52.648;4.764;2023-05-09T06:44:42;101392.13;;;16.12;80.13
64388;BME280;50709;52.648;4.764;2023-05-09T06:47:08;101372.28;;;15.84;80.13
64388;BME280;50709;52.648;4.764;2023-05-09T06:49:34;101403.75;;;15.96;80.89
64388;BME280;50709;52.648;4.764;2023-05-09T06:51:59;101392.47;;;15.85;81.70
64388;BME280;50709;52.648;4.764;2023-05-09T06:54:25;101394.09;;;15.95;81.50
64388;BME280;50709;52.648;4.764;2023-05-09T06:56:53;101370.22;;;16.10;80.75
64388;BME280;50709;52.648;4.764;2023-05-09T06:59:18;101368.31;;;16.20;79.44
64388;BME280;50709;52.648;4.764;2023-05-09T07:01:43;101362.97;;;16.28;79.80
64388;BME280;50709;52.648;4.764;2023-05-09T07:04:09;101379.31;;;16.52;79.48
64388;BME280;50709;52.648;4.764;2023-05-09T07:06:35;101347.81;;;16.44;78.71
64388;BME280;50709;52.648;4.764;2023-05-09T07:09:00;101385.03;;;16.18;79.90
64388;BME280;50709;52.648;4.764;2023-05-09T07:11:26;101377.97;;;16.23;80.38
64388;BME280;50709;52.648;4.764;2023-05-09T07:13:51;101372.31;;;16.49;79.23
64388;BME280;50709;52.648;4.764;2023-05-09T07:16:17;101351.59;;;16.23;80.36
64388;BME280;50709;52.648;4.764;2023-05-09T07:18:42;101360.84;;;16.55;79.34
64388;BME280;50709;52.648;4.764;2023-05-09T07:21:08;101353.03;;;16.47;79.67
64388;BME280;50709;52.648;4.764;2023-05-09T07:23:33;101358.28;;;16.48;79.69
64388;BME280;50709;52.648;4.764;2023-05-09T07:25:58;101356.50;;;16.51;80.35
64388;BME280;50709;52.648;4.764;2023-05-09T07:28:24;101357.72;;;16.25;79.55
64388;BME280;50709;52.648;4.764;2023-05-09T07:30:50;101353.34;;;16.24;80.52
64388;BME280;50709;52.648;4.764;2023-05-09T07:33:16;101348.78;;;16.35;80.80
64388;BME280;50709;52.648;4.764;2023-05-09T07:35:41;101339.59;;;16.65;79.51
64388;BME280;50709;52.648;4.764;2023-05-09T07:38:06;101311.38;;;16.08;80.83
64388;BME280;50709;52.648;4.764;2023-05-09T07:40:32;101340.94;;;16.32;79.65
64388;BME280;50709;52.648;4.764;2023-05-09T07:43:02;101325.94;;;16.37;79.18
64388;BME280;50709;52.648;4.764;2023-05-09T07:45:28;101325.31;;;16.20;79.74
64388;BME280;50709;52.648;4.764;2023-05-09T07:47:54;101329.69;;;16.18;79.63
64388;BME280;50709;52.648;4.764;2023-05-09T07:50:19;101328.66;;;16.90;77.19
64388;BME280;50709;52.648;4.764;2023-05-09T07:52:45;101342.78;;;16.86;76.92
64388;BME280;50709;52.648;4.764;2023-05-09T07:55:10;101330.09;;;16.52;77.22
64388;BME280;50709;52.648;4.764;2023-05-09T07:57:36;101321.56;;;16.95;76.00
64388;BME280;50709;52.648;4.764;2023-05-09T08:00:04;101312.66;;;16.43;76.73
64388;BME280;50709;52.648;4.764;2023-05-09T08:02:30;101315.00;;;16.62;76.63
64388;BME280;50709;52.648;4.764;2023-05-09T08:04:56;101306.09;;;16.69;76.01
64388;BME280;50709;52.648;4.764;2023-05-09T08:07:21;101265.88;;;16.56;75.18
64388;BME280;50709;52.648;4.764;2023-05-09T08:09:46;101299.34;;;16.53;76.42
64388;BME280;50709;52.648;4.764;2023-05-09T08:12:12;101297.72;;;16.42;76.96
64388;BME280;50709;52.648;4.764;2023-05-09T08:14:37;101293.59;;;16.82;77.08
64388;BME280;50709;52.648;4.764;2023-05-09T08:17:02;101290.16;;;16.77;76.76
64388;BME280;50709;52.648;4.764;2023-05-09T08:19:28;101293.84;;;16.68;77.44
64388;BME280;50709;52.648;4.764;2023-05-09T08:21:53;101291.41;;;17.09;75.60
64388;BME280;50709;52.648;4.764;2023-05-09T08:24:19;101274.06;;;16.95;75.85
64388;BME280;50709;52.648;4.764;2023-05-09T08:26:45;101271.59;;;16.81;76.24
64388;BME280;50709;52.648;4.764;2023-05-09T08:29:11;101273.03;;;16.46;78.49
64388;BME280;50709;52.648;4.764;2023-05-09T08:31:36;101267.03;;;16.40;78.78
64388;BME280;50709;52.648;4.764;2023-05-09T08:34:02;101260.13;;;16.31;79.77
64388;BME280;50709;52.648;4.764;2023-05-09T08:36:27;101269.19;;;16.69;77.45
64388;BME280;50709;52.648;4.764;2023-05-09T08:38:52;101268.34;;;16.67;77.91
64388;BME280;50709;52.648;4.764;2023-05-09T08:41:24;101259.84;;;16.50;78.75
64388;BME280;50709;52.648;4.764;2023-05-09T08:43:52;101258.66;;;16.10;78.63
64388;BME280;50709;52.648;4.764;2023-05-09T08:46:23;101253.22;;;16.24;78.07
64388;BME280;50709;52.648;4.764;2023-05-09T08:48:52;101255.06;;;16.17;78.99
64388;BME280;50709;52.648;4.764;2023-05-09T08:51:18;101210.81;;;15.77;79.94
64388;BME280;50709;52.648;4.764;2023-05-09T08:53:44;101261.88;;;15.63;81.60
64388;BME280;50709;52.648;4.764;2023-05-09T08:56:10;101246.94;;;15.66;82.39
64388;BME280;50709;52.648;4.764;2023-05-09T08:58:36;101240.34;;;16.01;80.34
64388;BME280;50709;52.648;4.764;2023-05-09T09:01:02;101249.78;;;16.17;79.38
64388;BME280;50709;52.648;4.764;2023-05-09T09:03:32;101251.78;;;16.01;80.00
64388;BME280;50709;52.648;4.764;2023-05-09T09:05:58;101248.19;;;16.63;78.11
64388;BME280;50709;52.648;4.764;2023-05-09T09:08:24;101247.50;;;15.91;80.25
64388;BME280;50709;52.648;4.764;2023-05-09T09:10:51;101245.16;;;16.33;79.65
64388;BME280;50709;52.648;4.764;2023-05-09T09:13:17;101241.03;;;16.15;78.85
64388;BME280;50709;52.648;4.764;2023-05-09T09:15:45;101239.19;;;16.20;79.13
64388;BME280;50709;52.648;4.764;2023-05-09T09:18:15;101241.06;;;16.13;80.05
64388;BME280;50709;52.648;4.764;2023-05-09T09:20:56;101219.97;;;16.13;79.78
64388;BME280;50709;52.648;4.764;2023-05-09T09:23:24;101223.91;;;16.42;78.73
64388;BME280;50709;52.648;4.764;2023-05-09T09:26:01;101222.91;;;15.92;80.14
64388;BME280;50709;52.648;4.764;2023-05-09T09:28:27;101214.91;;;16.00;81.05
64388;BME280;50709;52.648;4.764;2023-05-09T09:30:53;101224.66;;;15.93;80.97
64388;BME280;50709;52.648;4.764;2023-05-09T09:33:20;101166.19;;;15.66;80.16
64388;BME280;50709;52.648;4.764;2023-05-09T09:35:50;101228.38;;;15.76;81.78
64388;BME280;50709;52.648;4.764;2023-05-09T09:38:20;101221.00;;;16.02;80.22
64388;BME280;50709;52.648;4.764;2023-05-09T09:40:55;101228.94;;;16.00;80.93
64388;BME280;50709;52.648;4.764;2023-05-09T09:43:28;101212.13;;;16.10;81.40
64388;BME280;50709;52.648;4.764;2023-05-09T09:45:53;101208.25;;;16.33;80.17
64388;BME280;50709;52.648;4.764;2023-05-09T09:48:26;101206.69;;;16.21;81.43
64388;BME280;50709;52.648;4.764;2023-05-09T09:50:55;101211.66;;;16.38;81.25
64388;BME280;50709;52.648;4.764;2023-05-09T09:53:25;101205.47;;;16.41;80.53
64388;BME280;50709;52.648;4.764;2023-05-09T09:55:51;101199.28;;;16.43;80.42
64388;BME280;50709;52.648;4.764;2023-05-09T09:58:18;101208.78;;;16.55;80.95
64388;BME280;50709;52.648;4.764;2023-05-09T10:00:46;101176.84;;;16.19;80.78
64388;BME280;50709;52.648;4.764;2023-05-09T10:03:15;101195.69;;;16.49;81.26
64388;BME280;50709;52.648;4.764;2023-05-09T10:05:41;101193.63;;;16.13;81.71
64388;BME280;50709;52.648;4.764;2023-05-09T10:08:07;101199.06;;;16.59;80.75
64388;BME280;50709;52.648;4.764;2023-05-09T10:10:34;101191.28;;;16.50;81.09
64388;BME280;50709;52.648;4.764;2023-05-09T10:13:04;101186.56;;;16.69;80.22
64388;BME280;50709;52.648;4.764;2023-05-09T10:15:31;101194.34;;;16.23;82.18
64388;BME280;50709;52.648;4.764;2023-05-09T10:17:58;101198.63;;;16.29;82.17
64388;BME280;50709;52.648;4.764;2023-05-09T10:20:27;101178.94;;;16.52;80.88
64388;BME280;50709;52.648;4.764;2023-05-09T10:23:01;101191.44;;;16.40;82.03
64388;BME280;50709;52.648;4.764;2023-05-09T10:25:43;101184.00;;;16.64;80.90
64388;BME280;50709;52.648;4.764;2023-05-09T10:28:11;101181.56;;;16.52;81.24
64388;BME280;50709;52.648;4.764;2023-05-09T10:30:49;101178.28;;;16.90;79.10
64388;BME280;50709;52.648;4.764;2023-05-09T10:33:23;101176.16;;;16.61;79.44
64388;BME280;50709;52.648;4.764;2023-05-09T10:35:50;101155.06;;;16.61;80.18
64388;BME280;50709;52.648;4.764;2023-05-09T10:38:17;101172.69;;;16.59;80.41
64388;BME280;50709;52.648;4.764;2023-05-09T10:40:45;101164.38;;;16.80;79.79
64388;BME280;50709;52.648;4.764;2023-05-09T10:43:12;101164.63;;;16.68;80.58
64388;BME280;50709;52.648;4.764;2023-05-09T10:45:38;101162.41;;;16.42;81.88
64388;BME280;50709;52.648;4.764;2023-05-09T10:48:04;101157.22;;;16.87;79.88
64388;BME280;50709;52.648;4.764;2023-05-09T10:50:34;101147.06;;;16.64;80.52
64388;BME280;50709;52.648;4.764;2023-05-09T10:55:53;101140.78;;;16.23;82.60
64388;BME280;50709;52.648;4.764;2023-05-09T11:00:54;101136.97;;;16.39;81.09
64388;BME280;50709;52.648;4.764;2023-05-09T11:03:20;101141.22;;;16.50;81.40
64388;BME280;50709;52.648;4.764;2023-05-09T11:05:47;101133.53;;;16.34;81.16
64388;BME280;50709;52.648;4.764;2023-05-09T11:08:29;101106.75;;;16.60;79.87
64388;BME280;50709;52.648;4.764;2023-05-09T11:11:09;101135.28;;;16.85;79.25
64388;BME280;50709;52.648;4.764;2023-05-09T11:13:46;101140.00;;;16.68;79.72
64388;BME280;50709;52.648;4.764;2023-05-09T11:16:12;101128.97;;;16.45;81.31
64388;BME280;50709;52.648;4.764;2023-05-09T11:18:51;101125.00;;;16.71;80.97
64388;BME280;50709;52.648;4.764;2023-05-09T11:21:17;101114.06;;;16.44;81.35
64388;BME280;50709;52.648;4.764;2023-05-09T11:23:44;101101.59;;;16.53;81.26
64388;BME280;50709;52.648;4.764;2023-05-09T11:26:13;101114.50;;;16.67;81.05
64388;BME280;50709;52.648;4.764;2023-05-09T11:28:39;101113.69;;;16.64;81.37
64388;BME280;50709;52.648;4.764;2023-05-09T11:31:14;101118.13;;;16.61;81.27
64388;BME280;50709;52.648;4.764;2023-05-09T11:33:43;101108.03;;;16.38;82.17
64388;BME280;50709;52.648;4.764;2023-05-09T11:36:27;101095.81;;;16.80;79.89
64388;BME280;50709;52.648;4.764;2023-05-09T11:39:02;101109.59;;;16.46;82.07
64388;BME280;50709;52.648;4.764;2023-05-09T11:41:28;101102.94;;;16.75;80.83
64388;BME280;50709;52.648;4.764;2023-05-09T11:43:53;101107.56;;;16.62;81.27
64388;BME280;50709;52.648;4.764;2023-05-09T11:46:20;101105.44;;;16.81;80.99
64388;BME280;50709;52.648;4.764;2023-05-09T11:48:47;101102.56;;;16.48;81.92
64388;BME280;50709;52.648;4.764;2023-05-09T11:51:16;101083.03;;;16.57;82.14
64388;BME280;50709;52.648;4.764;2023-05-09T11:53:48;101086.84;;;16.42;82.58
64388;BME280;50709;52.648;4.764;2023-05-09T11:56:14;101093.78;;;16.48;81.75
64388;BME280;50709;52.648;4.764;2023-05-09T11:58:40;101087.75;;;16.87;81.16
64388;BME280;50709;52.648;4.764;2023-05-09T12:01:06;101062.38;;;16.34;83.55
64388;BME280;50709;52.648;4.764;2023-05-09T12:03:32;101075.16;;;16.56;81.85
64388;BME280;50709;52.648;4.764;2023-05-09T12:06:18;101075.06;;;17.06;80.19
64388;BME280;50709;52.648;4.764;2023-05-09T12:08:44;101078.66;;;16.58;81.74
64388;BME280;50709;52.648;4.764;2023-05-09T12:11:11;101077.38;;;16.79;81.36
64388;BME280;50709;52.648;4.764;2023-05-09T12:13:47;101070.53;;;17.12;79.58
64388;BME280;50709;52.648;4.764;2023-05-09T12:16:14;101048.81;;;17.01;80.25
64388;BME280;50709;52.648;4.764;2023-05-09T12:18:58;101070.38;;;17.20;79.34
64388;BME280;50709;52.648;4.764;2023-05-09T12:21:23;101074.56;;;16.87;80.83
64388;BME280;50709;52.648;4.764;2023-05-09T12:23:49;101063.16;;;17.28;79.96
64388;BME280;50709;52.648;4.764;2023-05-09T12:26:34;101068.84;;;17.10;80.18
64388;BME280;50709;52.648;4.764;2023-05-09T12:29:01;101057.94;;;17.64;77.60
64388;BME280;50709;52.648;4.764;2023-05-09T12:31:26;101025.03;;;17.42;77.75
64388;BME280;50709;52.648;4.764;2023-05-09T12:33:53;101056.19;;;17.26;79.48
64388;BME280;50709;52.648;4.764;2023-05-09T12:36:18;101061.16;;;17.38;77.85
64388;BME280;50709;52.648;4.764;2023-05-09T12:38:53;101056.06;;;16.91;80.52
64388;BME280;50709;52.648;4.764;2023-05-09T12:41:19;101052.63;;;17.27;79.62
64388;BME280;50709;52.648;4.764;2023-05-09T12:43:47;101047.59;;;16.74;81.67
64388;BME280;50709;52.648;4.764;2023-05-09T12:46:17;101043.84;;;16.84;81.65
64388;BME280;50709;52.648;4.764;2023-05-09T12:48:42;101041.94;;;16.94;80.73
64388;BME280;50709;52.648;4.764;2023-05-09T12:51:08;101043.50;;;17.03;80.88
64388;BME280;50709;52.648;4.764;2023-05-09T12:53:39;101043.50;;;17.03;80.49
64388;BME280;50709;52.648;4.764;2023-05-09T12:56:11;101036.66;;;16.92;81.29
64388;BME280;50709;52.648;4.764;2023-05-09T12:58:39;101007.53;;;17.38;78.01
64388;BME280;50709;52.648;4.764;2023-05-09T13:01:04;101035.94;;;17.26;79.32